createdAt,value
2023-07-29T00:02:58.625Z,16.78
2023-07-29T00:06:03.634Z,16.75
2023-07-29T00:09:08.501Z,16.73
2023-07-29T00:12:12.980Z,16.73
2023-07-29T00:15:17.595Z,16.71
2023-07-29T00:18:21.848Z,16.72
2023-07-29T00:21:26.511Z,16.73
2023-07-29T00:24:31.555Z,16.74
2023-07-29T00:27:36.175Z,16.70
2023-07-29T00:30:40.632Z,16.68
2023-07-29T00:33:44.888Z,16.60
2023-07-29T00:36:49.496Z,16.60
2023-07-29T00:39:53.982Z,16.56
2023-07-29T00:42:58.271Z,16.53
2023-07-29T00:46:02.605Z,16.54
2023-07-29T00:49:06.983Z,16.46
2023-07-29T00:52:13.472Z,16.46
2023-07-29T00:55:18.705Z,16.47
2023-07-29T00:58:23.336Z,16.53
2023-07-29T01:01:28.037Z,16.55
2023-07-29T01:04:33.517Z,16.58
2023-07-29T01:08:11.658Z,16.53
2023-07-29T01:11:42.884Z,16.53
2023-07-29T01:15:01.465Z,16.54
2023-07-29T01:18:12.290Z,16.57
2023-07-29T01:21:18.113Z,16.63
2023-07-29T01:24:22.606Z,16.65
2023-07-29T01:27:27.828Z,16.66
2023-07-29T01:30:42.030Z,16.65
2023-07-29T01:34:06.333Z,16.58
2023-07-29T01:37:16.459Z,16.62
2023-07-29T01:40:24.703Z,16.71
2023-07-29T01:43:31.791Z,16.73
2023-07-29T01:46:37.999Z,16.70
2023-07-29T01:49:43.298Z,16.76
2023-07-29T01:52:48.186Z,16.75
2023-07-29T01:55:52.915Z,16.73
2023-07-29T01:58:57.823Z,16.72
2023-07-29T02:02:02.006Z,16.68
2023-07-29T02:05:06.704Z,16.69
2023-07-29T02:08:12.479Z,16.74
2023-07-29T02:11:17.685Z,16.66
2023-07-29T02:14:22.229Z,16.69
2023-07-29T02:17:27.307Z,16.67
2023-07-29T02:20:31.815Z,16.65
2023-07-29T02:23:36.222Z,16.65
2023-07-29T02:26:44.247Z,16.62
2023-07-29T02:29:49.710Z,16.61
2023-07-29T02:32:54.117Z,16.65
2023-07-29T02:35:58.545Z,16.62
2023-07-29T02:39:03.123Z,16.66
2023-07-29T02:42:08.241Z,16.68
2023-07-29T02:45:13.071Z,16.72
2023-07-29T02:48:17.534Z,16.76
2023-07-29T02:51:21.863Z,16.84
2023-07-29T02:54:26.492Z,16.86
2023-07-29T02:57:30.865Z,16.92
2023-07-29T03:00:35.180Z,16.97
2023-07-29T03:03:40.345Z,16.96
2023-07-29T03:06:46.309Z,16.89
2023-07-29T03:09:50.911Z,16.77
2023-07-29T03:12:56.131Z,16.68
2023-07-29T03:16:12.839Z,16.57
2023-07-29T03:19:17.659Z,16.54
2023-07-29T03:22:22.207Z,16.51
2023-07-29T03:25:26.376Z,16.49
2023-07-29T03:28:34.397Z,16.51
2023-07-29T03:31:39.688Z,16.48
2023-07-29T03:34:44.288Z,16.45
2023-07-29T03:37:48.988Z,16.45
2023-07-29T03:40:54.540Z,16.46
2023-07-29T03:43:59.570Z,16.45
2023-07-29T03:47:04.260Z,16.43
2023-07-29T03:50:10.067Z,16.44
2023-07-29T03:53:14.429Z,16.42
2023-07-29T03:56:18.960Z,16.43
2023-07-29T03:59:24.005Z,16.43
2023-07-29T04:02:28.346Z,16.44
2023-07-29T04:05:32.668Z,16.44
2023-07-29T04:08:37.192Z,16.42
2023-07-29T04:11:41.718Z,16.41
2023-07-29T04:14:46.210Z,16.34
2023-07-29T04:17:50.669Z,16.32
2023-07-29T04:20:54.812Z,16.32
2023-07-29T04:23:59.035Z,16.35
2023-07-29T04:27:03.792Z,16.33
2023-07-29T04:30:09.401Z,16.34
2023-07-29T04:33:14.354Z,16.36
2023-07-29T04:36:18.913Z,16.39
2023-07-29T04:39:23.603Z,16.43
2023-07-29T04:42:28.253Z,16.52
2023-07-29T04:45:33.113Z,16.58
2023-07-29T04:48:37.388Z,16.83
2023-07-29T04:51:42.031Z,16.95
2023-07-29T04:54:46.186Z,17.01
2023-07-29T04:57:50.678Z,17.08
2023-07-29T05:00:55.330Z,17.14
2023-07-29T05:03:59.796Z,17.25
2023-07-29T05:07:04.450Z,17.31
2023-07-29T05:10:09.723Z,17.35
2023-07-29T05:13:13.893Z,17.38
2023-07-29T05:16:18.358Z,17.38
2023-07-29T05:19:23.886Z,17.42
2023-07-29T05:22:32.256Z,17.44
2023-07-29T05:25:36.787Z,17.46
2023-07-29T05:28:42.536Z,17.48
2023-07-29T05:31:48.397Z,17.50
2023-07-29T05:34:55.663Z,17.53
2023-07-29T05:38:00.235Z,17.55
2023-07-29T05:41:06.432Z,17.58
2023-07-29T05:44:11.378Z,17.60
2023-07-29T05:47:19.875Z,17.66
2023-07-29T05:50:24.488Z,17.69
2023-07-29T05:53:28.892Z,17.70
2023-07-29T05:56:33.311Z,17.72
2023-07-29T05:59:37.673Z,17.77
2023-07-29T06:02:45.087Z,17.81
2023-07-29T06:05:53.708Z,17.81
2023-07-29T06:09:01.778Z,17.85
2023-07-29T06:12:06.619Z,17.87
2023-07-29T06:15:11.373Z,17.87
2023-07-29T06:18:16.036Z,17.86
2023-07-29T06:21:21.499Z,17.86
2023-07-29T06:24:26.270Z,17.88
2023-07-29T06:27:31.038Z,17.90
2023-07-29T06:30:35.348Z,17.93
2023-07-29T06:33:39.797Z,18.03
2023-07-29T06:36:45.260Z,18.07
2023-07-29T06:39:50.296Z,18.14
2023-07-29T06:42:54.920Z,18.19
2023-07-29T06:45:59.650Z,18.21
2023-07-29T06:52:22.519Z,18.17
2023-07-29T06:55:27.416Z,18.17
2023-07-29T06:58:31.956Z,18.19
2023-07-29T07:01:36.416Z,18.23
2023-07-29T07:04:40.825Z,18.29
2023-07-29T07:07:45.482Z,18.34
2023-07-29T07:10:50.272Z,18.41
2023-07-29T07:13:54.970Z,18.45
2023-07-29T07:16:59.626Z,18.46
2023-07-29T07:20:04.735Z,18.48
2023-07-29T07:23:12.536Z,18.48
2023-07-29T07:26:17.768Z,18.45
2023-07-29T07:29:22.454Z,18.39
2023-07-29T07:32:27.765Z,18.35
2023-07-29T07:35:32.500Z,18.35
2023-07-29T07:38:37.801Z,18.34
2023-07-29T07:41:42.968Z,18.36
2023-07-29T07:44:47.981Z,18.42
2023-07-29T07:47:54.871Z,18.48
2023-07-29T07:50:59.409Z,18.55
2023-07-29T07:54:04.307Z,18.61
2023-07-29T07:57:09.142Z,18.70
2023-07-29T08:00:17.077Z,18.81
2023-07-29T08:03:21.746Z,18.83
2023-07-29T08:06:26.418Z,18.78
2023-07-29T08:09:31.230Z,18.77
2023-07-29T08:12:35.740Z,18.72
2023-07-29T08:15:40.466Z,18.73
2023-07-29T08:18:45.577Z,18.77
2023-07-29T08:21:50.390Z,18.87
2023-07-29T08:24:54.679Z,19.00
2023-07-29T08:27:59.187Z,19.11
2023-07-29T08:31:04.999Z,19.09
2023-07-29T08:34:09.570Z,19.02
2023-07-29T08:37:14.360Z,19.04
2023-07-29T08:40:20.627Z,19.07
2023-07-29T08:43:32.077Z,19.08
2023-07-29T08:46:38.192Z,19.06
2023-07-29T08:49:43.639Z,19.12
2023-07-29T08:52:50.598Z,19.22
2023-07-29T08:55:56.835Z,19.25
2023-07-29T08:59:03.270Z,19.23
2023-07-29T09:02:08.424Z,19.10
2023-07-29T09:05:13.144Z,19.10
2023-07-29T09:08:18.497Z,19.11
2023-07-29T09:11:23.526Z,19.14
2023-07-29T09:14:28.814Z,19.08
2023-07-29T09:17:34.639Z,19.08
2023-07-29T09:20:39.458Z,19.22
2023-07-29T09:23:45.375Z,19.28
2023-07-29T09:26:55.179Z,19.25
2023-07-29T09:29:59.453Z,19.17
2023-07-29T09:33:03.854Z,19.18
2023-07-29T09:36:11.585Z,19.18
2023-07-29T09:39:16.387Z,19.23
2023-07-29T09:42:23.196Z,19.25
2023-07-29T09:45:28.452Z,19.30
2023-07-29T09:48:42.761Z,19.36
2023-07-29T09:51:47.384Z,19.47
2023-07-29T09:54:52.662Z,19.45
2023-07-29T09:58:04.204Z,19.38
2023-07-29T10:01:10.637Z,19.18
2023-07-29T10:04:16.170Z,19.16
2023-07-29T10:07:21.197Z,19.26
2023-07-29T10:10:27.053Z,19.30
2023-07-29T10:13:32.065Z,19.38
2023-07-29T10:16:39.823Z,19.53
2023-07-29T10:19:46.184Z,19.73
2023-07-29T10:22:52.388Z,19.74
2023-07-29T10:26:10.806Z,19.66
2023-07-29T10:29:21.502Z,19.68
2023-07-29T10:32:30.106Z,19.63
2023-07-29T10:35:35.287Z,19.60
2023-07-29T10:38:40.551Z,19.50
2023-07-29T10:42:06.416Z,19.50
2023-07-29T10:45:22.063Z,19.68
2023-07-29T10:48:38.236Z,20.11
2023-07-29T10:51:43.000Z,20.36
2023-07-29T10:54:50.317Z,20.53
2023-07-29T10:58:14.996Z,21.07
2023-07-29T11:01:31.417Z,21.38
2023-07-29T11:04:53.492Z,21.12
2023-07-29T11:07:58.269Z,21.15
2023-07-29T11:11:14.539Z,20.80
2023-07-29T11:14:21.982Z,20.68
2023-07-29T11:17:26.654Z,20.52
2023-07-29T11:20:34.794Z,20.95
2023-07-29T11:23:39.346Z,21.14
2023-07-29T11:26:48.290Z,21.55
2023-07-29T11:30:01.876Z,21.20
2023-07-29T11:33:06.250Z,21.03
2023-07-29T11:36:20.731Z,21.24
2023-07-29T11:39:25.270Z,21.10
2023-07-29T11:42:29.941Z,21.13
2023-07-29T11:45:42.539Z,21.15
2023-07-29T11:48:56.330Z,21.12
2023-07-29T11:52:02.076Z,20.94
2023-07-29T11:55:08.717Z,20.76
2023-07-29T11:58:13.100Z,20.85
2023-07-29T12:01:17.654Z,20.82
2023-07-29T12:04:22.270Z,20.79
2023-07-29T12:07:27.262Z,21.11
2023-07-29T12:10:32.707Z,21.52
2023-07-29T12:13:42.401Z,22.13
2023-07-29T12:16:50.118Z,22.77
2023-07-29T12:19:56.453Z,23.13
2023-07-29T12:23:06.568Z,22.87
2023-07-29T12:26:11.015Z,23.00
2023-07-29T12:29:17.830Z,23.26
2023-07-29T12:32:26.635Z,22.89
2023-07-29T12:35:39.095Z,22.94
2023-07-29T12:38:45.544Z,22.78
2023-07-29T12:41:52.298Z,22.83
2023-07-29T12:44:56.952Z,22.63
2023-07-29T12:48:09.024Z,22.32
2023-07-29T12:51:13.903Z,22.34
2023-07-29T12:54:18.224Z,22.58
2023-07-29T12:57:22.875Z,22.70
2023-07-29T13:00:30.021Z,22.69
2023-07-29T13:03:34.836Z,22.74
2023-07-29T13:06:40.042Z,22.62
2023-07-29T13:09:44.537Z,22.20
2023-07-29T13:12:50.009Z,21.99
2023-07-29T13:15:55.231Z,21.86
2023-07-29T13:19:00.128Z,21.77
2023-07-29T13:22:05.098Z,21.74
2023-07-29T13:25:09.576Z,21.73
2023-07-29T13:28:14.406Z,21.82
2023-07-29T13:31:18.985Z,21.79
2023-07-29T13:34:23.568Z,21.65
2023-07-29T13:37:28.009Z,21.46
2023-07-29T13:40:33.328Z,21.30
2023-07-29T13:43:37.492Z,21.24
2023-07-29T13:46:41.890Z,21.28
2023-07-29T13:49:46.481Z,21.18
2023-07-29T13:52:51.064Z,21.23
2023-07-29T13:55:56.219Z,21.51
2023-07-29T13:59:00.602Z,21.69
2023-07-29T14:02:07.944Z,21.74
2023-07-29T14:05:13.073Z,21.70
2023-07-29T14:08:17.723Z,21.71
2023-07-29T14:11:22.111Z,21.74
2023-07-29T14:14:27.098Z,21.61
2023-07-29T14:17:32.675Z,21.61
2023-07-29T14:20:38.883Z,21.71
2023-07-29T14:23:43.530Z,21.71
2023-07-29T14:26:47.812Z,21.62
2023-07-29T14:29:52.760Z,21.51
2023-07-29T14:32:57.507Z,21.39
2023-07-29T14:39:20.867Z,21.13
2023-07-29T14:42:27.740Z,21.08
2023-07-29T14:45:32.286Z,21.01
2023-07-29T14:48:36.554Z,20.97
2023-07-29T14:51:41.768Z,21.00
2023-07-29T14:54:46.509Z,21.12
2023-07-29T14:57:50.956Z,21.14
2023-07-29T15:00:55.179Z,21.24
2023-07-29T15:03:59.450Z,21.15
2023-07-29T15:07:04.365Z,21.12
2023-07-29T15:10:09.013Z,21.07
2023-07-29T15:13:13.420Z,20.99
2023-07-29T15:16:18.196Z,20.91
2023-07-29T15:19:22.706Z,20.81
2023-07-29T15:22:27.394Z,20.76
2023-07-29T15:25:32.155Z,20.72
2023-07-29T15:28:36.848Z,20.64
2023-07-29T15:31:42.708Z,20.55
2023-07-29T15:34:47.022Z,20.50
2023-07-29T15:37:51.956Z,20.39
2023-07-29T15:40:56.897Z,20.29
2023-07-29T15:44:02.144Z,20.18
2023-07-29T15:47:07.313Z,20.18
2023-07-29T15:50:12.094Z,20.21
2023-07-29T15:53:16.454Z,20.24
2023-07-29T15:56:21.123Z,20.20
2023-07-29T15:59:27.223Z,20.10
2023-07-29T16:02:31.921Z,20.04
2023-07-29T16:05:36.919Z,19.96
2023-07-29T16:08:41.053Z,19.92
2023-07-29T16:11:45.537Z,19.92
2023-07-29T16:14:52.164Z,19.93
2023-07-29T16:17:59.309Z,19.94
2023-07-29T16:21:04.012Z,19.93
2023-07-29T16:24:08.571Z,19.97
2023-07-29T16:27:12.948Z,19.97
2023-07-29T16:30:18.095Z,20.00
2023-07-29T16:33:22.489Z,20.03
2023-07-29T16:36:27.124Z,20.03
2023-07-29T16:39:31.886Z,19.96
2023-07-29T16:42:36.290Z,19.94
2023-07-29T16:45:40.865Z,19.92
2023-07-29T16:48:45.102Z,19.91
2023-07-29T16:51:53.682Z,19.96
2023-07-29T16:54:58.326Z,20.05
2023-07-29T16:58:02.623Z,20.11
2023-07-29T17:01:07.497Z,20.10
2023-07-29T17:04:13.149Z,20.05
2023-07-29T17:07:18.223Z,19.97
2023-07-29T17:10:22.556Z,19.85
2023-07-29T17:13:28.022Z,19.76
2023-07-29T17:16:32.482Z,19.71
2023-07-29T17:19:37.305Z,19.75
2023-07-29T17:22:42.078Z,19.80
2023-07-29T17:25:46.433Z,19.76
2023-07-29T17:28:50.701Z,19.67
2023-07-29T17:31:55.331Z,19.58
2023-07-29T17:34:59.906Z,19.47
2023-07-29T17:38:12.928Z,19.37
2023-07-29T17:41:17.687Z,19.32
2023-07-29T17:44:22.125Z,19.31
2023-07-29T17:47:27.106Z,19.32
2023-07-29T17:50:34.416Z,19.34
2023-07-29T17:53:39.029Z,19.35
2023-07-29T17:56:43.579Z,19.33
2023-07-29T17:59:48.037Z,19.31
2023-07-29T18:02:53.487Z,19.33
2023-07-29T18:05:58.265Z,19.29
2023-07-29T18:09:02.857Z,19.32
2023-07-29T18:12:08.250Z,19.28
2023-07-29T18:15:12.560Z,19.25
2023-07-29T18:18:16.982Z,19.18
2023-07-29T18:21:21.534Z,19.17
2023-07-29T18:24:26.111Z,19.13
2023-07-29T18:27:31.046Z,19.10
2023-07-29T18:30:37.478Z,19.02
2023-07-29T18:33:41.887Z,18.89
2023-07-29T18:36:46.647Z,18.83
2023-07-29T18:39:51.335Z,18.75
2023-07-29T18:42:56.351Z,18.68
2023-07-29T18:46:01.061Z,18.60
2023-07-29T18:49:07.629Z,18.55
2023-07-29T18:52:12.441Z,18.53
2023-07-29T18:55:16.992Z,18.50
2023-07-29T18:58:21.368Z,18.45
2023-07-29T19:01:26.046Z,18.42
2023-07-29T19:04:31.043Z,18.38
2023-07-29T19:07:36.597Z,18.36
2023-07-29T19:10:41.043Z,18.33
2023-07-29T19:13:45.467Z,18.23
2023-07-29T19:16:52.423Z,18.17
2023-07-29T19:19:56.765Z,18.10
2023-07-29T19:23:01.321Z,18.05
2023-07-29T19:26:05.715Z,18.01
2023-07-29T19:29:13.703Z,17.96
2023-07-29T19:32:19.263Z,17.95
2023-07-29T19:35:27.781Z,17.87
2023-07-29T19:38:32.321Z,17.84
2023-07-29T19:41:37.050Z,17.83
2023-07-29T19:44:42.199Z,17.76
2023-07-29T19:47:46.939Z,17.74
2023-07-29T19:50:51.568Z,17.68
2023-07-29T19:53:55.793Z,17.63
2023-07-29T19:57:00.415Z,17.53
2023-07-29T20:00:05.770Z,17.45
2023-07-29T20:03:10.403Z,17.45
2023-07-29T20:06:15.286Z,17.47
2023-07-29T20:09:21.274Z,17.38
2023-07-29T20:12:26.028Z,17.35
2023-07-29T20:15:30.346Z,17.34
2023-07-29T20:18:34.684Z,17.37
2023-07-29T20:21:39.379Z,17.28
2023-07-29T20:24:44.210Z,17.23
2023-07-29T20:27:48.675Z,17.16
2023-07-29T20:31:00.397Z,17.13
2023-07-29T20:34:04.806Z,17.09
2023-07-29T20:37:09.084Z,17.04
2023-07-29T20:40:13.612Z,16.99
2023-07-29T20:43:18.227Z,16.98
2023-07-29T20:46:24.814Z,16.93
2023-07-29T20:49:29.559Z,16.95
2023-07-29T20:52:33.919Z,16.93
2023-07-29T20:55:38.400Z,16.89
2023-07-29T20:58:42.943Z,16.89
2023-07-29T21:01:47.920Z,16.84
2023-07-29T21:04:52.309Z,16.86
2023-07-29T21:07:56.652Z,16.90
2023-07-29T21:11:01.132Z,16.92
2023-07-29T21:14:05.411Z,16.92
2023-07-29T21:17:09.666Z,16.87
2023-07-29T21:20:14.935Z,16.81
2023-07-29T21:23:19.977Z,16.77
2023-07-29T21:26:24.968Z,16.72
2023-07-29T21:29:30.300Z,16.69
2023-07-29T21:32:34.736Z,16.63
2023-07-29T21:35:39.619Z,16.61
2023-07-29T21:38:44.302Z,16.61
2023-07-29T21:41:49.075Z,16.61
2023-07-29T21:44:53.581Z,16.61
2023-07-29T21:47:58.256Z,16.60
2023-07-29T21:51:02.551Z,16.62
2023-07-29T21:54:06.937Z,16.61
2023-07-29T21:57:11.337Z,16.63
2023-07-29T22:00:19.243Z,16.55
2023-07-29T22:03:23.839Z,16.62
2023-07-29T22:06:28.352Z,16.65
2023-07-29T22:09:32.851Z,16.67
2023-07-29T22:12:37.272Z,16.69
2023-07-29T22:15:41.896Z,16.70
2023-07-29T22:18:46.436Z,16.66
2023-07-29T22:21:51.571Z,16.69
2023-07-29T22:24:56.094Z,16.69
2023-07-29T22:28:00.766Z,16.68
2023-07-29T22:31:09.261Z,16.71
2023-07-29T22:34:14.249Z,16.73
2023-07-29T22:37:18.633Z,16.72
2023-07-29T22:40:23.382Z,16.73
2023-07-29T22:43:27.964Z,16.75
2023-07-29T22:46:32.406Z,16.77
2023-07-29T22:49:36.771Z,16.81
2023-07-29T22:52:41.178Z,16.84
2023-07-29T22:55:47.374Z,16.83
2023-07-29T22:58:51.968Z,16.83
2023-07-29T23:01:55.979Z,16.82
2023-07-29T23:05:00.851Z,16.89
2023-07-29T23:08:05.918Z,16.79
2023-07-29T23:11:10.479Z,16.87
2023-07-29T23:14:15.002Z,16.84
2023-07-29T23:17:19.110Z,16.84
2023-07-29T23:20:25.894Z,16.83
2023-07-29T23:23:31.610Z,16.81
2023-07-29T23:26:35.969Z,16.74
2023-07-29T23:29:40.543Z,16.75
2023-07-29T23:32:45.994Z,16.76
2023-07-29T23:35:50.793Z,16.80
2023-07-29T23:38:56.557Z,16.79
2023-07-29T23:42:00.693Z,16.82
2023-07-29T23:45:06.398Z,16.82
2023-07-29T23:48:10.869Z,16.85
2023-07-29T23:51:15.446Z,16.86
2023-07-29T23:54:19.850Z,16.85
2023-07-29T23:57:24.064Z,16.84
